sensor_id;sensor_type;location;lat;lon;timestamp;pressure;altitude;pressure_sealevel;temperature;humidity
54556;BME280;57291;37.520;15.106;2024-01-30T00:00:09;102969.22;;;10.12;66.86
54556;BME280;57291;37.520;15.106;2024-01-30T00:02:37;102964.53;;;10.07;67.02
54556;BME280;57291;37.520;15.106;2024-01-30T00:05:05;102967.94;;;10.02;67.19
54556;BME280;57291;37.520;15.106;2024-01-30T00:07:33;102961.31;;;9.98;67.05
54556;BME280;57291;37.520;15.106;2024-01-30T00:10:00;102957.19;;;9.96;66.82
54556;BME280;57291;37.520;15.106;2024-01-30T00:12:28;102959.53;;;9.92;66.84
54556;BME280;57291;37.520;15.106;2024-01-30T00:14:55;102961.09;;;9.88;66.95
54556;BME280;57291;37.520;15.106;2024-01-30T00:17:23;102960.94;;;9.83;66.61
54556;BME280;57291;37.520;15.106;2024-01-30T00:19:52;102965.81;;;9.81;66.82
54556;BME280;57291;37.520;15.106;2024-01-30T00:22:20;102966.38;;;9.83;66.15
54556;BME280;57291;37.520;15.106;2024-01-30T00:24:47;102966.03;;;9.79;66.04
54556;BME280;57291;37.520;15.106;2024-01-30T00:27:15;102967.09;;;9.78;65.82
54556;BME280;57291;37.520;15.106;2024-01-30T00:29:43;102964.50;;;9.72;65.81
54556;BME280;57291;37.520;15.106;2024-01-30T00:32:10;102960.16;;;9.71;65.85
54556;BME280;57291;37.520;15.106;2024-01-30T00:34:38;102961.44;;;9.68;65.40
54556;BME280;57291;37.520;15.106;2024-01-30T00:37:05;102957.28;;;9.66;65.39
54556;BME280;57291;37.520;15.106;2024-01-30T00:39:33;102962.13;;;9.63;65.43
54556;BME280;57291;37.520;15.106;2024-01-30T00:42:00;102966.16;;;9.61;65.30
54556;BME280;57291;37.520;15.106;2024-01-30T00:44:28;102967.78;;;9.62;65.36
54556;BME280;57291;37.520;15.106;2024-01-30T00:46:55;102968.25;;;9.59;65.07
54556;BME280;57291;37.520;15.106;2024-01-30T00:49:23;102973.34;;;9.55;65.35
54556;BME280;57291;37.520;15.106;2024-01-30T00:51:50;102966.72;;;9.51;65.55
54556;BME280;57291;37.520;15.106;2024-01-30T00:54:18;102974.25;;;9.49;65.71
54556;BME280;57291;37.520;15.106;2024-01-30T00:56:45;102963.41;;;9.49;65.63
54556;BME280;57291;37.520;15.106;2024-01-30T00:59:13;102972.63;;;9.48;65.51
54556;BME280;57291;37.520;15.106;2024-01-30T01:01:40;102952.19;;;9.46;65.87
54556;BME280;57291;37.520;15.106;2024-01-30T01:04:08;102952.19;;;9.46;65.80
54556;BME280;57291;37.520;15.106;2024-01-30T01:06:35;102955.38;;;9.43;66.07
54556;BME280;57291;37.520;15.106;2024-01-30T01:09:03;102950.66;;;9.38;65.89
54556;BME280;57291;37.520;15.106;2024-01-30T01:11:31;102951.09;;;9.35;66.21
54556;BME280;57291;37.520;15.106;2024-01-30T01:13:59;102947.19;;;9.31;66.03
54556;BME280;57291;37.520;15.106;2024-01-30T01:16:26;102948.97;;;9.25;66.50
54556;BME280;57291;37.520;15.106;2024-01-30T01:18:54;102950.34;;;9.16;66.62
54556;BME280;57291;37.520;15.106;2024-01-30T01:21:21;102941.84;;;9.12;66.71
54556;BME280;57291;37.520;15.106;2024-01-30T01:23:49;102943.50;;;9.13;67.03
54556;BME280;57291;37.520;15.106;2024-01-30T01:26:19;102946.81;;;9.15;67.33
54556;BME280;57291;37.520;15.106;2024-01-30T01:28:46;102942.41;;;9.14;67.28
54556;BME280;57291;37.520;15.106;2024-01-30T01:31:14;102947.28;;;9.12;67.19
54556;BME280;57291;37.520;15.106;2024-01-30T01:33:41;102945.63;;;9.11;67.19
54556;BME280;57291;37.520;15.106;2024-01-30T01:36:10;102941.25;;;9.10;67.18
54556;BME280;57291;37.520;15.106;2024-01-30T01:38:37;102947.13;;;9.07;67.12
54556;BME280;57291;37.520;15.106;2024-01-30T01:41:05;102935.69;;;9.05;67.18
54556;BME280;57291;37.520;15.106;2024-01-30T01:43:32;102932.75;;;9.07;67.02
54556;BME280;57291;37.520;15.106;2024-01-30T01:46:00;102929.19;;;9.06;66.96
54556;BME280;57291;37.520;15.106;2024-01-30T01:48:28;102922.59;;;9.02;67.08
54556;BME280;57291;37.520;15.106;2024-01-30T01:50:57;102925.31;;;9.02;66.72
54556;BME280;57291;37.520;15.106;2024-01-30T01:53:26;102929.41;;;9.05;67.02
54556;BME280;57291;37.520;15.106;2024-01-30T01:55:54;102928.59;;;9.04;67.34
54556;BME280;57291;37.520;15.106;2024-01-30T01:58:22;102926.34;;;9.01;67.23
54556;BME280;57291;37.520;15.106;2024-01-30T02:00:51;102921.97;;;9.00;67.26
54556;BME280;57291;37.520;15.106;2024-01-30T02:03:19;102926.59;;;9.00;67.26
54556;BME280;57291;37.520;15.106;2024-01-30T02:05:50;102927.88;;;8.97;67.22
54556;BME280;57291;37.520;15.106;2024-01-30T02:08:18;102925.41;;;8.96;67.47
54556;BME280;57291;37.520;15.106;2024-01-30T02:10:45;102923.16;;;8.92;67.22
54556;BME280;57291;37.520;15.106;2024-01-30T02:13:13;102915.59;;;8.95;67.17
54556;BME280;57291;37.520;15.106;2024-01-30T02:15:40;102913.72;;;8.95;67.13
54556;BME280;57291;37.520;15.106;2024-01-30T02:18:08;102914.09;;;8.99;67.06
54556;BME280;57291;37.520;15.106;2024-01-30T02:20:36;102919.28;;;9.00;66.73
54556;BME280;57291;37.520;15.106;2024-01-30T02:23:05;102918.81;;;9.03;66.76
54556;BME280;57291;37.520;15.106;2024-01-30T02:25:39;102914.56;;;9.07;66.70
54556;BME280;57291;37.520;15.106;2024-01-30T02:28:14;102912.81;;;9.13;66.68
54556;BME280;57291;37.520;15.106;2024-01-30T02:30:45;102914.00;;;9.17;66.64
54556;BME280;57291;37.520;15.106;2024-01-30T02:33:13;102914.00;;;9.17;66.57
54556;BME280;57291;37.520;15.106;2024-01-30T02:35:41;102910.13;;;9.13;67.15
54556;BME280;57291;37.520;15.106;2024-01-30T02:38:09;102922.72;;;9.07;67.41
54556;BME280;57291;37.520;15.106;2024-01-30T02:40:36;102919.63;;;9.04;67.60
54556;BME280;57291;37.520;15.106;2024-01-30T02:43:05;102923.16;;;9.04;67.43
54556;BME280;57291;37.520;15.106;2024-01-30T02:45:32;102905.59;;;9.07;67.35
54556;BME280;57291;37.520;15.106;2024-01-30T02:48:00;102909.59;;;9.04;67.17
54556;BME280;57291;37.520;15.106;2024-01-30T02:50:27;102908.94;;;9.09;67.23
54556;BME280;57291;37.520;15.106;2024-01-30T02:52:55;102903.50;;;9.09;67.33
54556;BME280;57291;37.520;15.106;2024-01-30T02:55:22;102894.09;;;9.11;67.29
54556;BME280;57291;37.520;15.106;2024-01-30T02:57:50;102896.91;;;9.16;67.19
54556;BME280;57291;37.520;15.106;2024-01-30T03:00:20;102897.72;;;9.17;67.11
54556;BME280;57291;37.520;15.106;2024-01-30T03:02:47;102896.53;;;9.13;67.01
54556;BME280;57291;37.520;15.106;2024-01-30T03:05:15;102900.19;;;9.07;67.13
54556;BME280;57291;37.520;15.106;2024-01-30T03:07:42;102902.06;;;9.06;67.22
54556;BME280;57291;37.520;15.106;2024-01-30T03:10:10;102894.41;;;9.03;66.70
54556;BME280;57291;37.520;15.106;2024-01-30T03:12:37;102895.00;;;9.05;66.63
54556;BME280;57291;37.520;15.106;2024-01-30T03:15:05;102889.22;;;9.02;66.19
54556;BME280;57291;37.520;15.106;2024-01-30T03:17:33;102903.00;;;9.00;66.26
54556;BME280;57291;37.520;15.106;2024-01-30T03:20:00;102894.34;;;8.91;66.75
54556;BME280;57291;37.520;15.106;2024-01-30T03:22:28;102897.91;;;8.92;65.62
54556;BME280;57291;37.520;15.106;2024-01-30T03:24:55;102898.84;;;8.86;65.64
54556;BME280;57291;37.520;15.106;2024-01-30T03:27:23;102895.31;;;8.85;65.77
54556;BME280;57291;37.520;15.106;2024-01-30T03:29:50;102889.28;;;8.83;65.36
54556;BME280;57291;37.520;15.106;2024-01-30T03:32:18;102893.88;;;8.83;64.58
54556;BME280;57291;37.520;15.106;2024-01-30T03:34:45;102891.63;;;8.80;64.65
54556;BME280;57291;37.520;15.106;2024-01-30T03:37:13;102880.41;;;8.76;64.74
54556;BME280;57291;37.520;15.106;2024-01-30T03:39:41;102896.16;;;8.67;65.37
54556;BME280;57291;37.520;15.106;2024-01-30T03:42:08;102887.44;;;8.65;65.52
54556;BME280;57291;37.520;15.106;2024-01-30T03:44:36;102887.81;;;8.69;64.83
54556;BME280;57291;37.520;15.106;2024-01-30T03:47:03;102888.03;;;8.67;64.76
54556;BME280;57291;37.520;15.106;2024-01-30T03:49:31;102894.72;;;8.65;64.96
54556;BME280;57291;37.520;15.106;2024-01-30T03:51:58;102890.00;;;8.60;65.29
54556;BME280;57291;37.520;15.106;2024-01-30T03:54:26;102880.34;;;8.64;64.89
54556;BME280;57291;37.520;15.106;2024-01-30T03:56:54;102882.25;;;8.64;64.50
54556;BME280;57291;37.520;15.106;2024-01-30T03:59:21;102892.34;;;8.57;65.24
54556;BME280;57291;37.520;15.106;2024-01-30T04:01:51;102882.19;;;8.52;65.78
54556;BME280;57291;37.520;15.106;2024-01-30T04:04:19;102875.47;;;8.55;65.13
54556;BME280;57291;37.520;15.106;2024-01-30T04:06:47;102875.09;;;8.51;64.99
54556;BME280;57291;37.520;15.106;2024-01-30T04:09:15;102872.63;;;8.50;65.11
54556;BME280;57291;37.520;15.106;2024-01-30T04:11:42;102872.03;;;8.48;65.19
54556;BME280;57291;37.520;15.106;2024-01-30T04:14:10;102879.72;;;8.51;65.27
54556;BME280;57291;37.520;15.106;2024-01-30T04:16:38;102874.53;;;8.49;65.12
54556;BME280;57291;37.520;15.106;2024-01-30T04:19:05;102873.69;;;8.49;65.12
54556;BME280;57291;37.520;15.106;2024-01-30T04:21:33;102871.22;;;8.47;65.19
54556;BME280;57291;37.520;15.106;2024-01-30T04:24:00;102871.81;;;8.49;64.90
54556;BME280;57291;37.520;15.106;2024-01-30T04:26:28;102872.28;;;8.46;64.71
54556;BME280;57291;37.520;15.106;2024-01-30T04:28:55;102865.88;;;8.40;64.89
54556;BME280;57291;37.520;15.106;2024-01-30T04:31:23;102870.47;;;8.40;64.90
54556;BME280;57291;37.520;15.106;2024-01-30T04:33:50;102870.47;;;8.40;64.90
54556;BME280;57291;37.520;15.106;2024-01-30T04:36:18;102870.69;;;8.38;65.18
54556;BME280;57291;37.520;15.106;2024-01-30T04:38:45;102871.09;;;8.35;65.00
54556;BME280;57291;37.520;15.106;2024-01-30T04:41:12;102872.38;;;8.39;64.91
54556;BME280;57291;37.520;15.106;2024-01-30T04:43:40;102878.22;;;8.36;65.09
54556;BME280;57291;37.520;15.106;2024-01-30T04:46:08;102870.75;;;8.32;65.28
54556;BME280;57291;37.520;15.106;2024-01-30T04:48:35;102868.03;;;8.32;65.25
54556;BME280;57291;37.520;15.106;2024-01-30T04:51:03;102879.09;;;8.30;65.42
54556;BME280;57291;37.520;15.106;2024-01-30T04:53:31;102873.69;;;8.30;65.62
54556;BME280;57291;37.520;15.106;2024-01-30T04:55:59;102884.06;;;8.33;65.90
54556;BME280;57291;37.520;15.106;2024-01-30T04:58:26;102881.56;;;8.32;66.12
54556;BME280;57291;37.520;15.106;2024-01-30T05:00:54;102876.97;;;8.32;66.34
54556;BME280;57291;37.520;15.106;2024-01-30T05:03:23;102876.97;;;8.32;66.33
54556;BME280;57291;37.520;15.106;2024-01-30T05:05:51;102871.56;;;8.32;66.52
54556;BME280;57291;37.520;15.106;2024-01-30T05:08:19;102873.59;;;8.37;66.22
54556;BME280;57291;37.520;15.106;2024-01-30T05:10:46;102872.56;;;8.38;66.01
54556;BME280;57291;37.520;15.106;2024-01-30T05:13:14;102876.53;;;8.35;66.07
54556;BME280;57291;37.520;15.106;2024-01-30T05:15:41;102885.19;;;8.26;66.64
54556;BME280;57291;37.520;15.106;2024-01-30T05:18:09;102886.25;;;8.25;66.52
54556;BME280;57291;37.520;15.106;2024-01-30T05:20:36;102889.41;;;8.21;66.72
54556;BME280;57291;37.520;15.106;2024-01-30T05:23:04;102893.19;;;8.20;66.94
54556;BME280;57291;37.520;15.106;2024-01-30T05:25:31;102890.22;;;8.22;67.23
54556;BME280;57291;37.520;15.106;2024-01-30T05:27:59;102889.88;;;8.18;67.36
54556;BME280;57291;37.520;15.106;2024-01-30T05:30:26;102889.66;;;8.20;66.47
54556;BME280;57291;37.520;15.106;2024-01-30T05:32:53;102880.69;;;8.19;65.89
54556;BME280;57291;37.520;15.106;2024-01-30T05:35:21;102890.03;;;8.23;65.51
54556;BME280;57291;37.520;15.106;2024-01-30T05:37:49;102887.16;;;8.18;65.86
54556;BME280;57291;37.520;15.106;2024-01-30T05:40:17;102893.72;;;8.11;66.15
54556;BME280;57291;37.520;15.106;2024-01-30T05:42:44;102897.25;;;8.11;66.15
54556;BME280;57291;37.520;15.106;2024-01-30T05:45:12;102905.75;;;8.15;66.12
54556;BME280;57291;37.520;15.106;2024-01-30T05:47:39;102902.28;;;8.08;66.55
54556;BME280;57291;37.520;15.106;2024-01-30T05:50:07;102906.50;;;8.04;66.83
54556;BME280;57291;37.520;15.106;2024-01-30T05:52:35;102914.38;;;8.05;66.69
54556;BME280;57291;37.520;15.106;2024-01-30T05:55:03;102914.25;;;8.00;66.86
54556;BME280;57291;37.520;15.106;2024-01-30T05:57:31;102911.91;;;8.04;67.44
54556;BME280;57291;37.520;15.106;2024-01-30T05:59:58;102912.28;;;8.07;67.27
54556;BME280;57291;37.520;15.106;2024-01-30T06:02:25;102920.78;;;8.11;67.35
54556;BME280;57291;37.520;15.106;2024-01-30T06:04:53;102913.13;;;8.08;67.28
54556;BME280;57291;37.520;15.106;2024-01-30T06:07:20;102917.47;;;8.09;67.40
54556;BME280;57291;37.520;15.106;2024-01-30T06:09:49;102925.16;;;8.12;67.24
54556;BME280;57291;37.520;15.106;2024-01-30T06:12:17;102920.94;;;8.16;66.91
54556;BME280;57291;37.520;15.106;2024-01-30T06:14:44;102915.91;;;8.19;66.93
54556;BME280;57291;37.520;15.106;2024-01-30T06:17:13;102928.31;;;8.27;66.63
54556;BME280;57291;37.520;15.106;2024-01-30T06:19:41;102926.06;;;8.24;66.05
54556;BME280;57291;37.520;15.106;2024-01-30T06:22:08;102931.25;;;8.26;65.92
54556;BME280;57291;37.520;15.106;2024-01-30T06:24:36;102933.13;;;8.25;65.90
54556;BME280;57291;37.520;15.106;2024-01-30T06:27:04;102941.25;;;8.25;65.89
54556;BME280;57291;37.520;15.106;2024-01-30T06:29:31;102933.50;;;8.29;66.33
54556;BME280;57291;37.520;15.106;2024-01-30T06:31:59;102940.69;;;8.60;66.70
54556;BME280;57291;37.520;15.106;2024-01-30T06:34:26;102931.00;;;8.82;65.63
54556;BME280;57291;37.520;15.106;2024-01-30T06:36:54;102942.50;;;8.96;64.87
54556;BME280;57291;37.520;15.106;2024-01-30T06:39:22;102935.22;;;9.08;64.18
54556;BME280;57291;37.520;15.106;2024-01-30T06:41:50;102934.03;;;9.04;63.79
54556;BME280;57291;37.520;15.106;2024-01-30T06:44:17;102929.16;;;8.95;64.16
54556;BME280;57291;37.520;15.106;2024-01-30T06:46:45;102940.53;;;8.85;64.54
54556;BME280;57291;37.520;15.106;2024-01-30T06:49:12;102940.06;;;8.76;64.66
54556;BME280;57291;37.520;15.106;2024-01-30T06:51:40;102942.41;;;8.73;65.11
54556;BME280;57291;37.520;15.106;2024-01-30T06:54:07;102947.22;;;8.71;65.58
54556;BME280;57291;37.520;15.106;2024-01-30T06:56:35;102948.03;;;8.71;65.81
54556;BME280;57291;37.520;15.106;2024-01-30T06:59:03;102960.78;;;8.71;66.01
54556;BME280;57291;37.520;15.106;2024-01-30T07:01:31;102954.06;;;8.73;66.11
54556;BME280;57291;37.520;15.106;2024-01-30T07:03:59;102960.00;;;8.82;66.22
54556;BME280;57291;37.520;15.106;2024-01-30T07:06:27;102963.00;;;8.92;66.47
54556;BME280;57291;37.520;15.106;2024-01-30T07:08:55;102958.44;;;9.04;66.19
54556;BME280;57291;37.520;15.106;2024-01-30T07:11:23;102964.81;;;9.10;65.92
54556;BME280;57291;37.520;15.106;2024-01-30T07:13:51;102960.75;;;9.19;66.14
54556;BME280;57291;37.520;15.106;2024-01-30T07:16:18;102963.72;;;9.29;66.22
54556;BME280;57291;37.520;15.106;2024-01-30T07:18:46;102961.03;;;9.41;66.00
54556;BME280;57291;37.520;15.106;2024-01-30T07:21:14;102961.44;;;9.68;66.35
54556;BME280;57291;37.520;15.106;2024-01-30T07:23:42;102954.72;;;9.94;65.58
54556;BME280;57291;37.520;15.106;2024-01-30T07:26:10;102955.88;;;10.22;65.56
54556;BME280;57291;37.520;15.106;2024-01-30T07:28:38;102959.50;;;10.51;64.69
54556;BME280;57291;37.520;15.106;2024-01-30T07:31:05;102956.13;;;10.72;64.28
54556;BME280;57291;37.520;15.106;2024-01-30T07:33:33;102957.44;;;10.98;63.91
54556;BME280;57291;37.520;15.106;2024-01-30T07:36:01;102957.41;;;11.27;63.45
54556;BME280;57291;37.520;15.106;2024-01-30T07:38:31;102954.97;;;11.59;62.86
54556;BME280;57291;37.520;15.106;2024-01-30T07:40:59;102957.19;;;11.79;62.08
54556;BME280;57291;37.520;15.106;2024-01-30T07:43:26;102957.47;;;11.94;62.15
54556;BME280;57291;37.520;15.106;2024-01-30T07:45:53;102961.97;;;12.06;61.67
54556;BME280;57291;37.520;15.106;2024-01-30T07:48:21;102957.06;;;12.25;61.95
54556;BME280;57291;37.520;15.106;2024-01-30T07:50:49;102961.34;;;12.37;61.98
54556;BME280;57291;37.520;15.106;2024-01-30T07:53:16;102961.69;;;12.68;61.86
54556;BME280;57291;37.520;15.106;2024-01-30T07:55:44;102962.41;;;13.34;60.39
54556;BME280;57291;37.520;15.106;2024-01-30T07:58:14;102969.13;;;13.54;59.85
54556;BME280;57291;37.520;15.106;2024-01-30T08:00:41;102966.78;;;14.05;59.40
54556;BME280;57291;37.520;15.106;2024-01-30T08:03:09;102970.06;;;14.02;58.18
54556;BME280;57291;37.520;15.106;2024-01-30T08:05:37;102963.88;;;13.79;58.80
54556;BME280;57291;37.520;15.106;2024-01-30T08:08:06;102969.44;;;13.57;59.62
54556;BME280;57291;37.520;15.106;2024-01-30T08:10:36;102975.56;;;13.37;60.31
54556;BME280;57291;37.520;15.106;2024-01-30T08:13:05;102968.38;;;13.26;62.53
54556;BME280;57291;37.520;15.106;2024-01-30T08:15:32;102980.00;;;12.95;67.26
54556;BME280;57291;37.520;15.106;2024-01-30T08:18:00;102973.84;;;12.82;68.42
54556;BME280;57291;37.520;15.106;2024-01-30T08:20:28;102975.84;;;12.65;68.62
54556;BME280;57291;37.520;15.106;2024-01-30T08:22:55;102984.53;;;12.62;69.27
54556;BME280;57291;37.520;15.106;2024-01-30T08:25:23;102980.38;;;12.54;69.06
54556;BME280;57291;37.520;15.106;2024-01-30T08:27:51;102980.47;;;12.42;69.89
54556;BME280;57291;37.520;15.106;2024-01-30T08:30:19;102984.28;;;12.41;70.24
54556;BME280;57291;37.520;15.106;2024-01-30T08:32:46;102983.47;;;12.41;69.55
54556;BME280;57291;37.520;15.106;2024-01-30T08:35:14;102986.75;;;12.43;69.62
54556;BME280;57291;37.520;15.106;2024-01-30T08:37:43;102999.00;;;12.40;69.87
54556;BME280;57291;37.520;15.106;2024-01-30T08:40:11;102994.69;;;12.44;69.31
54556;BME280;57291;37.520;15.106;2024-01-30T08:42:38;102992.97;;;12.38;68.72
54556;BME280;57291;37.520;15.106;2024-01-30T08:45:06;102987.38;;;12.50;69.00
54556;BME280;57291;37.520;15.106;2024-01-30T08:47:34;102997.88;;;12.58;68.79
54556;BME280;57291;37.520;15.106;2024-01-30T08:50:02;102996.66;;;12.49;68.75
54556;BME280;57291;37.520;15.106;2024-01-30T08:52:29;103004.47;;;12.62;68.34
54556;BME280;57291;37.520;15.106;2024-01-30T08:54:57;103000.28;;;12.55;66.43
54556;BME280;57291;37.520;15.106;2024-01-30T08:57:25;103002.41;;;12.53;67.10
54556;BME280;57291;37.520;15.106;2024-01-30T08:59:56;103002.06;;;12.44;66.91
54556;BME280;57291;37.520;15.106;2024-01-30T09:02:24;103005.84;;;12.65;67.32
54556;BME280;57291;37.520;15.106;2024-01-30T09:04:51;103010.34;;;12.76;65.51
54556;BME280;57291;37.520;15.106;2024-01-30T09:07:19;103012.44;;;12.69;64.83
54556;BME280;57291;37.520;15.106;2024-01-30T09:09:46;103013.03;;;12.71;65.18
54556;BME280;57291;37.520;15.106;2024-01-30T09:12:14;103008.41;;;12.72;64.85
54556;BME280;57291;37.520;15.106;2024-01-30T09:14:42;103012.25;;;12.76;65.31
54556;BME280;57291;37.520;15.106;2024-01-30T09:17:09;103016.22;;;13.12;65.46
54556;BME280;57291;37.520;15.106;2024-01-30T09:19:37;103016.44;;;13.05;64.02
54556;BME280;57291;37.520;15.106;2024-01-30T09:22:05;103017.31;;;13.33;65.01
54556;BME280;57291;37.520;15.106;2024-01-30T09:24:33;103020.97;;;13.44;63.62
54556;BME280;57291;37.520;15.106;2024-01-30T09:27:01;103018.22;;;13.44;63.23
54556;BME280;57291;37.520;15.106;2024-01-30T09:29:29;103027.59;;;13.53;63.37
54556;BME280;57291;37.520;15.106;2024-01-30T09:31:57;103021.16;;;13.15;63.59
54556;BME280;57291;37.520;15.106;2024-01-30T09:34:25;103017.94;;;12.96;63.94
54556;BME280;57291;37.520;15.106;2024-01-30T09:36:52;103028.44;;;12.82;64.58
54556;BME280;57291;37.520;15.106;2024-01-30T09:39:21;103032.63;;;12.68;65.13
54556;BME280;57291;37.520;15.106;2024-01-30T09:41:51;103032.50;;;12.58;66.06
54556;BME280;57291;37.520;15.106;2024-01-30T09:44:23;103028.47;;;12.60;66.99
54556;BME280;57291;37.520;15.106;2024-01-30T09:46:53;103031.44;;;12.81;66.26
54556;BME280;57291;37.520;15.106;2024-01-30T09:49:20;103030.63;;;12.80;66.08
54556;BME280;57291;37.520;15.106;2024-01-30T09:51:51;103028.75;;;12.86;66.07
54556;BME280;57291;37.520;15.106;2024-01-30T09:54:20;103030.03;;;13.00;66.02
54556;BME280;57291;37.520;15.106;2024-01-30T09:56:48;103035.19;;;12.97;65.77
54556;BME280;57291;37.520;15.106;2024-01-30T09:59:15;103026.47;;;13.00;65.75
54556;BME280;57291;37.520;15.106;2024-01-30T10:01:43;103037.09;;;12.74;65.51
54556;BME280;57291;37.520;15.106;2024-01-30T10:04:11;103022.22;;;12.65;65.83
54556;BME280;57291;37.520;15.106;2024-01-30T10:06:40;103019.59;;;12.53;66.57
54556;BME280;57291;37.520;15.106;2024-01-30T10:09:08;103014.59;;;12.45;67.24
54556;BME280;57291;37.520;15.106;2024-01-30T10:11:36;103016.00;;;12.70;66.92
54556;BME280;57291;37.520;15.106;2024-01-30T10:14:04;103021.69;;;13.12;65.87
54556;BME280;57291;37.520;15.106;2024-01-30T10:16:31;103012.91;;;13.59;64.48
54556;BME280;57291;37.520;15.106;2024-01-30T10:18:59;103007.53;;;13.69;63.44
54556;BME280;57291;37.520;15.106;2024-01-30T10:21:27;103010.81;;;13.71;62.83
54556;BME280;57291;37.520;15.106;2024-01-30T10:23:54;103010.66;;;13.88;62.20
54556;BME280;57291;37.520;15.106;2024-01-30T10:26:22;102997.22;;;13.81;62.08
54556;BME280;57291;37.520;15.106;2024-01-30T10:28:49;103009.25;;;13.80;62.47
54556;BME280;57291;37.520;15.106;2024-01-30T10:31:17;103004.81;;;13.74;62.05
54556;BME280;57291;37.520;15.106;2024-01-30T10:33:46;103003.63;;;13.60;61.86
54556;BME280;57291;37.520;15.106;2024-01-30T10:36:14;102998.09;;;13.55;62.56
54556;BME280;57291;37.520;15.106;2024-01-30T10:38:49;102999.34;;;13.69;62.18
54556;BME280;57291;37.520;15.106;2024-01-30T10:41:24;102997.22;;;13.81;62.19
54556;BME280;57291;37.520;15.106;2024-01-30T10:44:08;103002.16;;;13.84;60.64
54556;BME280;57291;37.520;15.106;2024-01-30T10:46:42;102993.34;;;13.72;61.55
54556;BME280;57291;37.520;15.106;2024-01-30T10:49:14;102991.50;;;13.51;62.41
54556;BME280;57291;37.520;15.106;2024-01-30T10:51:42;102984.53;;;13.65;61.26
54556;BME280;57291;37.520;15.106;2024-01-30T10:54:12;102982.81;;;13.54;62.29
54556;BME280;57291;37.520;15.106;2024-01-30T10:56:40;102984.94;;;13.47;63.23
54556;BME280;57291;37.520;15.106;2024-01-30T10:59:09;102984.50;;;13.60;61.59
54556;BME280;57291;37.520;15.106;2024-01-30T11:01:38;102976.78;;;13.89;61.34
54556;BME280;57291;37.520;15.106;2024-01-30T11:04:06;102975.56;;;13.37;62.77
54556;BME280;57291;37.520;15.106;2024-01-30T11:06:41;102965.59;;;13.91;62.14
54556;BME280;57291;37.520;15.106;2024-01-30T11:09:11;102967.44;;;14.27;60.87
54556;BME280;57291;37.520;15.106;2024-01-30T11:11:58;102965.22;;;14.19;60.31
54556;BME280;57291;37.520;15.106;2024-01-30T11:14:30;102963.41;;;13.93;60.85
54556;BME280;57291;37.520;15.106;2024-01-30T11:16:58;102958.88;;;13.71;61.51
54556;BME280;57291;37.520;15.106;2024-01-30T11:19:27;102958.34;;;13.69;61.06
54556;BME280;57291;37.520;15.106;2024-01-30T11:21:56;102952.03;;;13.69;62.17
54556;BME280;57291;37.520;15.106;2024-01-30T11:24:27;102951.03;;;13.43;62.51
54556;BME280;57291;37.520;15.106;2024-01-30T11:26:58;102952.59;;;13.38;63.05
54556;BME280;57291;37.520;15.106;2024-01-30T11:29:27;102943.78;;;13.26;62.32
54556;BME280;57291;37.520;15.106;2024-01-30T11:31:57;102938.16;;;13.16;63.65
54556;BME280;57291;37.520;15.106;2024-01-30T11:34:25;102942.25;;;13.13;63.04
54556;BME280;57291;37.520;15.106;2024-01-30T11:36:59;102933.03;;;13.47;62.52
54556;BME280;57291;37.520;15.106;2024-01-30T11:39:26;102934.63;;;13.43;62.28
54556;BME280;57291;37.520;15.106;2024-01-30T11:41:55;102939.47;;;13.35;63.54
54556;BME280;57291;37.520;15.106;2024-01-30T11:44:23;102924.53;;;13.80;62.26
54556;BME280;57291;37.520;15.106;2024-01-30T11:46:52;102922.19;;;13.99;61.58
54556;BME280;57291;37.520;15.106;2024-01-30T11:49:19;102928.59;;;14.25;60.23
54556;BME280;57291;37.520;15.106;2024-01-30T11:51:48;102919.09;;;14.38;59.42
54556;BME280;57291;37.520;15.106;2024-01-30T11:54:19;102923.78;;;14.48;59.90
54556;BME280;57291;37.520;15.106;2024-01-30T11:56:47;102922.72;;;14.54;59.38
54556;BME280;57291;37.520;15.106;2024-01-30T11:59:15;102921.91;;;14.53;59.42
54556;BME280;57291;37.520;15.106;2024-01-30T12:01:42;102910.34;;;14.46;58.68
54556;BME280;57291;37.520;15.106;2024-01-30T12:04:10;102910.16;;;14.58;58.74
54556;BME280;57291;37.520;15.106;2024-01-30T12:06:38;102899.19;;;14.53;59.19
54556;BME280;57291;37.520;15.106;2024-01-30T12:09:07;102896.47;;;14.58;58.94
54556;BME280;57291;37.520;15.106;2024-01-30T12:11:47;102887.66;;;14.46;58.44
54556;BME280;57291;37.520;15.106;2024-01-30T12:14:15;102884.31;;;14.28;59.65
54556;BME280;57291;37.520;15.106;2024-01-30T12:16:43;102882.31;;;14.08;59.41
54556;BME280;57291;37.520;15.106;2024-01-30T12:19:21;102878.78;;;14.13;60.49
54556;BME280;57291;37.520;15.106;2024-01-30T12:21:54;102884.03;;;14.25;60.38
54556;BME280;57291;37.520;15.106;2024-01-30T12:24:23;102884.06;;;14.35;60.51
54556;BME280;57291;37.520;15.106;2024-01-30T12:26:51;102879.78;;;13.97;60.18
54556;BME280;57291;37.520;15.106;2024-01-30T12:29:20;102870.13;;;13.79;61.43
54556;BME280;57291;37.520;15.106;2024-01-30T12:31:52;102876.88;;;13.66;61.82
54556;BME280;57291;37.520;15.106;2024-01-30T12:34:20;102874.50;;;13.80;60.61
54556;BME280;57291;37.520;15.106;2024-01-30T12:36:48;102871.88;;;13.95;60.12
54556;BME280;57291;37.520;15.106;2024-01-30T12:39:17;102874.16;;;14.19;60.13
54556;BME280;57291;37.520;15.106;2024-01-30T12:41:45;102873.81;;;14.05;60.09
54556;BME280;57291;37.520;15.106;2024-01-30T12:44:14;102870.31;;;13.67;60.61
54556;BME280;57291;37.520;15.106;2024-01-30T12:46:41;102877.53;;;13.41;61.84
54556;BME280;57291;37.520;15.106;2024-01-30T12:49:10;102874.41;;;13.65;62.53